sensor_id;sensor_type;location;lat;lon;timestamp;P1;durP1;ratioP1;P2;durP2;ratioP2
61675;SDS011;47574;52.090;5.244;2023-08-06T00:01:37;10.8;;;7.5;;
61675;SDS011;47574;52.090;5.244;2023-08-06T00:03:13;7.7;;;6.9;;
61675;SDS011;47574;52.090;5.244;2023-08-06T00:04:49;9.31;;;7.2;;
61675;SDS011;47574;52.090;5.244;2023-08-06T00:08:01;8.0;;;7.2;;
61675;SDS011;47574;52.090;5.244;2023-08-06T00:09:37;8.5;;;7.4;;
61675;SDS011;47574;52.090;5.244;2023-08-06T00:11:13;9.5;;;6.9;;
61675;SDS011;47574;52.090;5.244;2023-08-06T00:14:25;8.5;;;7.1;;
61675;SDS011;47574;52.090;5.244;2023-08-06T00:16:08;7.9;;;7.2;;
61675;SDS011;47574;52.090;5.244;2023-08-06T00:17:46;8.1;;;7.3;;
61675;SDS011;47574;52.090;5.244;2023-08-06T00:19:23;8.81;;;7.3;;
61675;SDS011;47574;52.090;5.244;2023-08-06T00:22:36;10.5;;;7.2;;
61675;SDS011;47574;52.090;5.244;2023-08-06T00:24:13;8.4;;;7.6;;
61675;SDS011;47574;52.090;5.244;2023-08-06T00:25:49;7.8;;;6.6;;
61675;SDS011;47574;52.090;5.244;2023-08-06T00:29:02;8.0;;;7.2;;
61675;SDS011;47574;52.090;5.244;2023-08-06T00:30:39;7.8;;;7.0;;
61675;SDS011;47574;52.090;5.244;2023-08-06T00:32:16;7.9;;;6.9;;
61675;SDS011;47574;52.090;5.244;2023-08-06T00:35:29;8.31;;;7.0;;
61675;SDS011;47574;52.090;5.244;2023-08-06T00:37:06;9.5;;;6.8;;
61675;SDS011;47574;52.090;5.244;2023-08-06T00:38:43;7.5;;;6.7;;
61675;SDS011;47574;52.090;5.244;2023-08-06T00:40:20;7.5;;;6.1;;
61675;SDS011;47574;52.090;5.244;2023-08-06T00:43:33;7.3;;;6.6;;
61675;SDS011;47574;52.090;5.244;2023-08-06T00:45:10;7.1;;;6.4;;
61675;SDS011;47574;52.090;5.244;2023-08-06T00:46:47;7.7;;;6.8;;
61675;SDS011;47574;52.090;5.244;2023-08-06T00:50:00;7.5;;;6.5;;
61675;SDS011;47574;52.090;5.244;2023-08-06T00:51:37;9.6;;;7.5;;
61675;SDS011;47574;52.090;5.244;2023-08-06T00:53:14;10.3;;;7.7;;
61675;SDS011;47574;52.090;5.244;2023-08-06T00:54:50;10.0;;;8.2;;
61675;SDS011;47574;52.090;5.244;2023-08-06T00:58:04;8.31;;;7.5;;
61675;SDS011;47574;52.090;5.244;2023-08-06T00:59:41;7.7;;;6.9;;
61675;SDS011;47574;52.090;5.244;2023-08-06T01:01:18;8.1;;;6.8;;
61675;SDS011;47574;52.090;5.244;2023-08-06T01:04:32;7.1;;;6.5;;
61675;SDS011;47574;52.090;5.244;2023-08-06T01:06:08;9.31;;;7.2;;
61675;SDS011;47574;52.090;5.244;2023-08-06T01:07:47;9.6;;;7.2;;
61675;SDS011;47574;52.090;5.244;2023-08-06T01:09:40;7.3;;;6.6;;
61675;SDS011;47574;52.090;5.244;2023-08-06T01:13:16;7.7;;;6.9;;
61675;SDS011;47574;52.090;5.244;2023-08-06T01:15:07;7.7;;;7.0;;
61675;SDS011;47574;52.090;5.244;2023-08-06T01:16:52;8.6;;;6.7;;
61675;SDS011;47574;52.090;5.244;2023-08-06T01:18:31;8.6;;;7.0;;
61675;SDS011;47574;52.090;5.244;2023-08-06T01:20:07;8.6;;;7.0;;
61675;SDS011;47574;52.090;5.244;2023-08-06T01:23:20;7.9;;;7.1;;
61675;SDS011;47574;52.090;5.244;2023-08-06T01:24:57;9.31;;;8.31;;
61675;SDS011;47574;52.090;5.244;2023-08-06T01:26:35;8.4;;;7.6;;
61675;SDS011;47574;52.090;5.244;2023-08-06T01:28:19;8.9;;;7.2;;
61675;SDS011;47574;52.090;5.244;2023-08-06T01:31:58;8.71;;;6.8;;
61675;SDS011;47574;52.090;5.244;2023-08-06T01:33:38;7.8;;;7.0;;
61675;SDS011;47574;52.090;5.244;2023-08-06T01:35:21;7.3;;;6.6;;
61675;SDS011;47574;52.090;5.244;2023-08-06T01:36:58;7.1;;;6.4;;
61675;SDS011;47574;52.090;5.244;2023-08-06T01:40:13;7.5;;;6.8;;
61675;SDS011;47574;52.090;5.244;2023-08-06T01:41:50;7.4;;;6.6;;
61675;SDS011;47574;52.090;5.244;2023-08-06T01:43:26;7.7;;;6.9;;
61675;SDS011;47574;52.090;5.244;2023-08-06T01:45:02;8.0;;;6.4;;
61675;SDS011;47574;52.090;5.244;2023-08-06T01:48:16;8.6;;;7.7;;
61675;SDS011;47574;52.090;5.244;2023-08-06T01:49:53;8.2;;;6.9;;
61675;SDS011;47574;52.090;5.244;2023-08-06T01:51:29;8.0;;;7.0;;
61675;SDS011;47574;52.090;5.244;2023-08-06T01:54:41;8.31;;;7.5;;
61675;SDS011;47574;52.090;5.244;2023-08-06T01:56:17;7.5;;;6.8;;
61675;SDS011;47574;52.090;5.244;2023-08-06T01:57:53;7.7;;;6.7;;
61675;SDS011;47574;52.090;5.244;2023-08-06T02:01:05;8.0;;;6.8;;
61675;SDS011;47574;52.090;5.244;2023-08-06T02:02:41;8.4;;;7.5;;
61675;SDS011;47574;52.090;5.244;2023-08-06T02:04:18;11.2;;;8.0;;
61675;SDS011;47574;52.090;5.244;2023-08-06T02:07:30;8.5;;;6.5;;
61675;SDS011;47574;52.090;5.244;2023-08-06T02:09:06;8.6;;;7.3;;
61675;SDS011;47574;52.090;5.244;2023-08-06T02:10:42;7.9;;;7.0;;
61675;SDS011;47574;52.090;5.244;2023-08-06T02:12:18;8.1;;;7.3;;
61675;SDS011;47574;52.090;5.244;2023-08-06T02:15:30;7.9;;;7.1;;
61675;SDS011;47574;52.090;5.244;2023-08-06T02:17:07;7.8;;;6.9;;
61675;SDS011;47574;52.090;5.244;2023-08-06T02:18:43;6.8;;;6.2;;
61675;SDS011;47574;52.090;5.244;2023-08-06T02:21:55;7.9;;;6.7;;
61675;SDS011;47574;52.090;5.244;2023-08-06T02:23:32;7.9;;;6.7;;
61675;SDS011;47574;52.090;5.244;2023-08-06T02:25:08;7.2;;;6.5;;
61675;SDS011;47574;52.090;5.244;2023-08-06T02:28:21;7.5;;;6.8;;
61675;SDS011;47574;52.090;5.244;2023-08-06T02:29:57;7.9;;;6.9;;
61675;SDS011;47574;52.090;5.244;2023-08-06T02:31:35;9.31;;;7.3;;
61675;SDS011;47574;52.090;5.244;2023-08-06T02:33:11;8.2;;;7.4;;
61675;SDS011;47574;52.090;5.244;2023-08-06T02:36:23;8.5;;;6.9;;
61675;SDS011;47574;52.090;5.244;2023-08-06T02:37:59;8.2;;;7.3;;
61675;SDS011;47574;52.090;5.244;2023-08-06T02:39:35;8.31;;;7.3;;
61675;SDS011;47574;52.090;5.244;2023-08-06T02:42:48;8.81;;;7.5;;
61675;SDS011;47574;52.090;5.244;2023-08-06T02:44:26;8.9;;;7.4;;
61675;SDS011;47574;52.090;5.244;2023-08-06T02:46:03;8.2;;;7.4;;
61675;SDS011;47574;52.090;5.244;2023-08-06T02:49:16;10.3;;;8.0;;
61675;SDS011;47574;52.090;5.244;2023-08-06T02:50:52;9.0;;;7.8;;
61675;SDS011;47574;52.090;5.244;2023-08-06T02:52:32;8.2;;;7.4;;
61675;SDS011;47574;52.090;5.244;2023-08-06T02:54:08;8.5;;;7.7;;
61675;SDS011;47574;52.090;5.244;2023-08-06T02:57:22;8.9;;;7.8;;
61675;SDS011;47574;52.090;5.244;2023-08-06T02:58:59;8.31;;;7.5;;
61675;SDS011;47574;52.090;5.244;2023-08-06T03:00:35;8.2;;;7.5;;
61675;SDS011;47574;52.090;5.244;2023-08-06T03:03:48;8.6;;;7.7;;
61675;SDS011;47574;52.090;5.244;2023-08-06T03:05:24;8.71;;;7.9;;
61675;SDS011;47574;52.090;5.244;2023-08-06T03:07:00;8.71;;;7.9;;
61675;SDS011;47574;52.090;5.244;2023-08-06T03:10:12;9.1;;;8.2;;
61675;SDS011;47574;52.090;5.244;2023-08-06T03:11:48;8.6;;;7.7;;
61675;SDS011;47574;52.090;5.244;2023-08-06T03:13:24;8.6;;;7.7;;
61675;SDS011;47574;52.090;5.244;2023-08-06T03:15:02;8.9;;;8.0;;
61675;SDS011;47574;52.090;5.244;2023-08-06T03:18:16;9.71;;;8.71;;
61675;SDS011;47574;52.090;5.244;2023-08-06T03:19:52;9.9;;;9.0;;
61675;SDS011;47574;52.090;5.244;2023-08-06T03:21:28;9.81;;;8.81;;
61675;SDS011;47574;52.090;5.244;2023-08-06T03:24:40;10.7;;;9.31;;
61675;SDS011;47574;52.090;5.244;2023-08-06T03:26:16;10.0;;;9.0;;
61675;SDS011;47574;52.090;5.244;2023-08-06T03:27:52;10.3;;;9.21;;
61675;SDS011;47574;52.090;5.244;2023-08-06T03:31:06;10.9;;;9.71;;
61675;SDS011;47574;52.090;5.244;2023-08-06T03:32:42;9.6;;;8.71;;
61675;SDS011;47574;52.090;5.244;2023-08-06T03:34:18;9.81;;;8.81;;
61675;SDS011;47574;52.090;5.244;2023-08-06T03:37:31;10.6;;;9.5;;
61675;SDS011;47574;52.090;5.244;2023-08-06T03:39:07;10.8;;;9.71;;
61675;SDS011;47574;52.090;5.244;2023-08-06T03:40:43;11.4;;;10.21;;
61675;SDS011;47574;52.090;5.244;2023-08-06T03:42:19;11.1;;;10.0;;
61675;SDS011;47574;52.090;5.244;2023-08-06T03:45:32;11.8;;;10.4;;
61675;SDS011;47574;52.090;5.244;2023-08-06T03:47:08;11.6;;;10.4;;
61675;SDS011;47574;52.090;5.244;2023-08-06T03:48:44;12.0;;;10.9;;
61675;SDS011;47574;52.090;5.244;2023-08-06T03:51:56;12.4;;;10.4;;
61675;SDS011;47574;52.090;5.244;2023-08-06T03:53:32;12.4;;;10.4;;
61675;SDS011;47574;52.090;5.244;2023-08-06T03:55:08;12.8;;;11.5;;
61675;SDS011;47574;52.090;5.244;2023-08-06T03:58:22;12.0;;;10.8;;
61675;SDS011;47574;52.090;5.244;2023-08-06T03:59:58;11.8;;;10.7;;
61675;SDS011;47574;52.090;5.244;2023-08-06T04:01:34;14.6;;;11.2;;
61675;SDS011;47574;52.090;5.244;2023-08-06T04:03:10;12.2;;;10.9;;
61675;SDS011;47574;52.090;5.244;2023-08-06T04:06:23;11.6;;;10.4;;
61675;SDS011;47574;52.090;5.244;2023-08-06T04:07:59;11.0;;;10.0;;
61675;SDS011;47574;52.090;5.244;2023-08-06T04:09:52;12.1;;;10.9;;
61675;SDS011;47574;52.090;5.244;2023-08-06T04:13:06;10.7;;;9.71;;
61675;SDS011;47574;52.090;5.244;2023-08-06T04:14:43;10.9;;;9.9;;
61675;SDS011;47574;52.090;5.244;2023-08-06T04:16:20;12.1;;;10.9;;
61675;SDS011;47574;52.090;5.244;2023-08-06T04:17:57;11.3;;;10.1;;
61675;SDS011;47574;52.090;5.244;2023-08-06T04:21:09;11.8;;;10.6;;
61675;SDS011;47574;52.090;5.244;2023-08-06T04:22:45;10.8;;;9.71;;
61675;SDS011;47574;52.090;5.244;2023-08-06T04:24:21;11.6;;;10.4;;
61675;SDS011;47574;52.090;5.244;2023-08-06T04:27:35;10.3;;;9.31;;
61675;SDS011;47574;52.090;5.244;2023-08-06T04:29:11;11.7;;;10.5;;
61675;SDS011;47574;52.090;5.244;2023-08-06T04:30:48;10.4;;;9.4;;
61675;SDS011;47574;52.090;5.244;2023-08-06T04:32:25;12.4;;;9.5;;
61675;SDS011;47574;52.090;5.244;2023-08-06T04:35:37;10.1;;;9.1;;
61675;SDS011;47574;52.090;5.244;2023-08-06T04:37:13;10.7;;;9.6;;
61675;SDS011;47574;52.090;5.244;2023-08-06T04:38:49;10.6;;;9.5;;
61675;SDS011;47574;52.090;5.244;2023-08-06T04:42:02;10.3;;;9.31;;
61675;SDS011;47574;52.090;5.244;2023-08-06T04:43:39;10.3;;;9.21;;
61675;SDS011;47574;52.090;5.244;2023-08-06T04:45:15;9.71;;;8.81;;
61675;SDS011;47574;52.090;5.244;2023-08-06T04:48:27;9.9;;;8.9;;
61675;SDS011;47574;52.090;5.244;2023-08-06T04:50:03;10.6;;;9.5;;
61675;SDS011;47574;52.090;5.244;2023-08-06T04:51:40;9.21;;;8.31;;
61675;SDS011;47574;52.090;5.244;2023-08-06T04:54:55;9.4;;;8.5;;
61675;SDS011;47574;52.090;5.244;2023-08-06T04:56:31;10.21;;;9.21;;
61675;SDS011;47574;52.090;5.244;2023-08-06T04:58:08;11.0;;;9.71;;
61675;SDS011;47574;52.090;5.244;2023-08-06T04:59:45;11.1;;;9.4;;
61675;SDS011;47574;52.090;5.244;2023-08-06T05:04:35;11.0;;;9.9;;
61675;SDS011;47574;52.090;5.244;2023-08-06T05:06:11;10.4;;;9.5;;
61675;SDS011;47574;52.090;5.244;2023-08-06T05:09:26;11.7;;;10.21;;
61675;SDS011;47574;52.090;5.244;2023-08-06T05:11:02;11.2;;;10.0;;
61675;SDS011;47574;52.090;5.244;2023-08-06T05:12:38;11.1;;;10.0;;
61675;SDS011;47574;52.090;5.244;2023-08-06T05:15:50;11.8;;;10.7;;
61675;SDS011;47574;52.090;5.244;2023-08-06T05:17:29;11.7;;;10.6;;
61675;SDS011;47574;52.090;5.244;2023-08-06T05:19:05;12.0;;;10.8;;
61675;SDS011;47574;52.090;5.244;2023-08-06T05:20:42;12.3;;;11.1;;
61675;SDS011;47574;52.090;5.244;2023-08-06T05:23:55;11.8;;;10.7;;
61675;SDS011;47574;52.090;5.244;2023-08-06T05:25:34;12.2;;;11.0;;
61675;SDS011;47574;52.090;5.244;2023-08-06T05:27:10;12.7;;;11.4;;
61675;SDS011;47574;52.090;5.244;2023-08-06T05:30:23;14.1;;;11.4;;
61675;SDS011;47574;52.090;5.244;2023-08-06T05:31:59;13.1;;;11.5;;
61675;SDS011;47574;52.090;5.244;2023-08-06T05:33:37;12.3;;;11.1;;
61675;SDS011;47574;52.090;5.244;2023-08-06T05:35:14;13.6;;;12.2;;
61675;SDS011;47574;52.090;5.244;2023-08-06T05:38:29;12.5;;;11.2;;
61675;SDS011;47574;52.090;5.244;2023-08-06T05:40:06;14.5;;;12.0;;
61675;SDS011;47574;52.090;5.244;2023-08-06T05:41:42;13.6;;;12.2;;
61675;SDS011;47574;52.090;5.244;2023-08-06T05:44:55;12.7;;;11.4;;
61675;SDS011;47574;52.090;5.244;2023-08-06T05:46:32;12.4;;;11.1;;
61675;SDS011;47574;52.090;5.244;2023-08-06T05:48:08;12.9;;;11.5;;
61675;SDS011;47574;52.090;5.244;2023-08-06T05:51:21;12.8;;;11.2;;
61675;SDS011;47574;52.090;5.244;2023-08-06T05:52:58;13.4;;;11.8;;
61675;SDS011;47574;52.090;5.244;2023-08-06T05:54:34;12.8;;;11.2;;
61675;SDS011;47574;52.090;5.244;2023-08-06T05:56:10;12.4;;;11.1;;
61675;SDS011;47574;52.090;5.244;2023-08-06T05:59:23;12.5;;;11.2;;
61675;SDS011;47574;52.090;5.244;2023-08-06T06:01:00;13.2;;;11.7;;
61675;SDS011;47574;52.090;5.244;2023-08-06T06:02:37;13.2;;;11.7;;
61675;SDS011;47574;52.090;5.244;2023-08-06T06:05:50;14.1;;;12.6;;
61675;SDS011;47574;52.090;5.244;2023-08-06T06:07:26;15.5;;;13.2;;
61675;SDS011;47574;52.090;5.244;2023-08-06T06:09:02;15.4;;;13.3;;
61675;SDS011;47574;52.090;5.244;2023-08-06T06:12:14;14.3;;;12.8;;
61675;SDS011;47574;52.090;5.244;2023-08-06T06:13:52;15.2;;;13.6;;
61675;SDS011;47574;52.090;5.244;2023-08-06T06:15:28;14.8;;;13.2;;
61675;SDS011;47574;52.090;5.244;2023-08-06T06:17:04;15.6;;;13.9;;
61675;SDS011;47574;52.090;5.244;2023-08-06T06:20:17;16.11;;;12.9;;
61675;SDS011;47574;52.090;5.244;2023-08-06T06:21:53;16.4;;;13.7;;
61675;SDS011;47574;52.090;5.244;2023-08-06T06:23:31;14.2;;;12.8;;
61675;SDS011;47574;52.090;5.244;2023-08-06T06:26:44;15.1;;;13.5;;
61675;SDS011;47574;52.090;5.244;2023-08-06T06:28:21;14.1;;;12.6;;
61675;SDS011;47574;52.090;5.244;2023-08-06T06:29:58;13.9;;;12.4;;
61675;SDS011;47574;52.090;5.244;2023-08-06T06:33:11;13.3;;;12.0;;
61675;SDS011;47574;52.090;5.244;2023-08-06T06:34:48;12.1;;;10.21;;
61675;SDS011;47574;52.090;5.244;2023-08-06T06:36:26;9.31;;;8.31;;
61675;SDS011;47574;52.090;5.244;2023-08-06T06:38:03;5.0;;;4.61;;
61675;SDS011;47574;52.090;5.244;2023-08-06T06:41:15;4.2;;;3.8;;
61675;SDS011;47574;52.090;5.244;2023-08-06T06:42:52;3.0;;;2.8;;
61675;SDS011;47574;52.090;5.244;2023-08-06T06:44:28;2.9;;;2.6;;
61675;SDS011;47574;52.090;5.244;2023-08-06T06:47:43;2.31;;;2.1;;
61675;SDS011;47574;52.090;5.244;2023-08-06T06:49:19;2.7;;;2.5;;
61675;SDS011;47574;52.090;5.244;2023-08-06T06:50:55;2.7;;;2.5;;
61675;SDS011;47574;52.090;5.244;2023-08-06T06:54:08;2.6;;;2.5;;
61675;SDS011;47574;52.090;5.244;2023-08-06T06:55:45;3.0;;;2.8;;
61675;SDS011;47574;52.090;5.244;2023-08-06T06:57:21;3.0;;;2.8;;
61675;SDS011;47574;52.090;5.244;2023-08-06T06:58:57;2.9;;;2.21;;
61675;SDS011;47574;52.090;5.244;2023-08-06T07:02:12;2.8;;;2.6;;
61675;SDS011;47574;52.090;5.244;2023-08-06T07:03:48;2.4;;;2.21;;
61675;SDS011;47574;52.090;5.244;2023-08-06T07:05:24;2.7;;;2.5;;
61675;SDS011;47574;52.090;5.244;2023-08-06T07:08:36;2.31;;;2.21;;
61675;SDS011;47574;52.090;5.244;2023-08-06T07:10:13;2.8;;;2.6;;
61675;SDS011;47574;52.090;5.244;2023-08-06T07:11:49;2.31;;;2.1;;
61675;SDS011;47574;52.090;5.244;2023-08-06T07:15:02;2.21;;;2.1;;
61675;SDS011;47574;52.090;5.244;2023-08-06T07:16:40;2.5;;;2.31;;
61675;SDS011;47574;52.090;5.244;2023-08-06T07:18:17;2.5;;;2.31;;
61675;SDS011;47574;52.090;5.244;2023-08-06T07:19:53;2.6;;;2.4;;
61675;SDS011;47574;52.090;5.244;2023-08-06T07:23:07;2.8;;;2.7;;
61675;SDS011;47574;52.090;5.244;2023-08-06T07:24:43;2.7;;;2.5;;
61675;SDS011;47574;52.090;5.244;2023-08-06T07:26:19;2.7;;;2.6;;
61675;SDS011;47574;52.090;5.244;2023-08-06T07:29:32;3.4;;;3.1;;
61675;SDS011;47574;52.090;5.244;2023-08-06T07:31:09;3.2;;;3.0;;
61675;SDS011;47574;52.090;5.244;2023-08-06T07:32:46;3.4;;;3.1;;
61675;SDS011;47574;52.090;5.244;2023-08-06T07:35:59;3.5;;;3.3;;
61675;SDS011;47574;52.090;5.244;2023-08-06T07:37:35;3.5;;;3.3;;
61675;SDS011;47574;52.090;5.244;2023-08-06T07:39:11;4.5;;;4.0;;
61675;SDS011;47574;52.090;5.244;2023-08-06T07:40:48;4.8;;;4.41;;
61675;SDS011;47574;52.090;5.244;2023-08-06T07:44:01;4.2;;;3.9;;
61675;SDS011;47574;52.090;5.244;2023-08-06T07:45:37;3.9;;;3.7;;
61675;SDS011;47574;52.090;5.244;2023-08-06T07:47:14;4.91;;;4.1;;
61675;SDS011;47574;52.090;5.244;2023-08-06T07:50:27;4.3;;;4.0;;
61675;SDS011;47574;52.090;5.244;2023-08-06T07:52:04;4.7;;;4.3;;
61675;SDS011;47574;52.090;5.244;2023-08-06T07:53:41;3.6;;;3.4;;
61675;SDS011;47574;52.090;5.244;2023-08-06T07:56:54;3.5;;;3.0;;
61675;SDS011;47574;52.090;5.244;2023-08-06T07:58:30;3.6;;;3.3;;
61675;SDS011;47574;52.090;5.244;2023-08-06T08:01:44;3.5;;;3.1;;
61675;SDS011;47574;52.090;5.244;2023-08-06T08:04:58;3.4;;;2.9;;
61675;SDS011;47574;52.090;5.244;2023-08-06T08:06:34;3.8;;;3.0;;
61675;SDS011;47574;52.090;5.244;2023-08-06T08:08:10;4.7;;;3.0;;
61675;SDS011;47574;52.090;5.244;2023-08-06T08:11:23;2.8;;;2.5;;
61675;SDS011;47574;52.090;5.244;2023-08-06T08:13:02;4.3;;;3.2;;
61675;SDS011;47574;52.090;5.244;2023-08-06T08:17:51;4.8;;;3.6;;
61675;SDS011;47574;52.090;5.244;2023-08-06T08:19:27;3.4;;;2.9;;
61675;SDS011;47574;52.090;5.244;2023-08-06T08:21:03;3.6;;;3.0;;
61675;SDS011;47574;52.090;5.244;2023-08-06T08:22:40;3.3;;;2.5;;
61675;SDS011;47574;52.090;5.244;2023-08-06T08:25:54;2.8;;;2.6;;
61675;SDS011;47574;52.090;5.244;2023-08-06T08:27:31;3.0;;;2.7;;
61675;SDS011;47574;52.090;5.244;2023-08-06T08:29:07;4.2;;;3.0;;
61675;SDS011;47574;52.090;5.244;2023-08-06T08:32:20;4.2;;;3.1;;
61675;SDS011;47574;52.090;5.244;2023-08-06T08:33:56;3.5;;;3.1;;
61675;SDS011;47574;52.090;5.244;2023-08-06T08:35:32;4.3;;;3.3;;
61675;SDS011;47574;52.090;5.244;2023-08-06T08:38:46;4.0;;;3.7;;
61675;SDS011;47574;52.090;5.244;2023-08-06T08:40:23;4.8;;;3.9;;
61675;SDS011;47574;52.090;5.244;2023-08-06T08:42:05;4.3;;;3.8;;
61675;SDS011;47574;52.090;5.244;2023-08-06T08:43:42;3.7;;;3.4;;
61675;SDS011;47574;52.090;5.244;2023-08-06T08:46:57;4.0;;;3.6;;
61675;SDS011;47574;52.090;5.244;2023-08-06T08:48:35;4.41;;;3.7;;
61675;SDS011;47574;52.090;5.244;2023-08-06T08:50:11;4.5;;;4.0;;
61675;SDS011;47574;52.090;5.244;2023-08-06T08:53:28;4.2;;;3.8;;
61675;SDS011;47574;52.090;5.244;2023-08-06T08:55:06;4.2;;;3.8;;
61675;SDS011;47574;52.090;5.244;2023-08-06T08:56:43;3.9;;;3.6;;
61675;SDS011;47574;52.090;5.244;2023-08-06T08:58:19;4.3;;;3.9;;
61675;SDS011;47574;52.090;5.244;2023-08-06T09:01:32;5.11;;;4.41;;
61675;SDS011;47574;52.090;5.244;2023-08-06T09:03:09;5.0;;;4.61;;
61675;SDS011;47574;52.090;5.244;2023-08-06T09:04:46;5.7;;;4.3;;
61675;SDS011;47574;52.090;5.244;2023-08-06T09:08:04;5.8;;;4.2;;
61675;SDS011;47574;52.090;5.244;2023-08-06T09:09:40;5.4;;;4.61;;
61675;SDS011;47574;52.090;5.244;2023-08-06T09:12:57;7.1;;;5.3;;
61675;SDS011;47574;52.090;5.244;2023-08-06T09:16:11;5.9;;;5.3;;
61675;SDS011;47574;52.090;5.244;2023-08-06T09:17:47;5.7;;;5.11;;
61675;SDS011;47574;52.090;5.244;2023-08-06T09:19:24;6.0;;;5.4;;
61675;SDS011;47574;52.090;5.244;2023-08-06T09:22:38;6.6;;;5.11;;
61675;SDS011;47574;52.090;5.244;2023-08-06T09:24:15;6.5;;;5.4;;
61675;SDS011;47574;52.090;5.244;2023-08-06T09:25:51;6.4;;;4.8;;
61675;SDS011;47574;52.090;5.244;2023-08-06T09:27:28;5.0;;;4.5;;
61675;SDS011;47574;52.090;5.244;2023-08-06T09:30:47;5.0;;;4.41;;
61675;SDS011;47574;52.090;5.244;2023-08-06T09:32:24;5.7;;;4.7;;
61675;SDS011;47574;52.090;5.244;2023-08-06T09:34:00;6.9;;;5.11;;
61675;SDS011;47574;52.090;5.244;2023-08-06T09:37:14;7.1;;;6.1;;
61675;SDS011;47574;52.090;5.244;2023-08-06T09:38:51;7.4;;;5.11;;
61675;SDS011;47574;52.090;5.244;2023-08-06T09:40:27;7.8;;;5.8;;
61675;SDS011;47574;52.090;5.244;2023-08-06T09:42:06;12.6;;;9.5;;
61675;SDS011;47574;52.090;5.244;2023-08-06T09:46:56;6.6;;;5.3;;
61675;SDS011;47574;52.090;5.244;2023-08-06T09:48:35;9.9;;;6.5;;
61675;SDS011;47574;52.090;5.244;2023-08-06T09:51:52;12.3;;;7.5;;
61675;SDS011;47574;52.090;5.244;2023-08-06T09:53:29;7.0;;;5.4;;
61675;SDS011;47574;52.090;5.244;2023-08-06T09:55:06;6.5;;;5.3;;
61675;SDS011;47574;52.090;5.244;2023-08-06T09:56:44;5.7;;;4.61;;
61675;SDS011;47574;52.090;5.244;2023-08-06T10:00:00;8.9;;;6.2;;
61675;SDS011;47574;52.090;5.244;2023-08-06T10:01:38;7.0;;;5.11;;
61675;SDS011;47574;52.090;5.244;2023-08-06T10:03:15;8.5;;;5.0;;
61675;SDS011;47574;52.090;5.244;2023-08-06T10:06:32;8.5;;;5.0;;
61675;SDS011;47574;52.090;5.244;2023-08-06T10:08:10;7.5;;;5.3;;
61675;SDS011;47574;52.090;5.244;2023-08-06T10:09:47;9.5;;;5.8;;
61675;SDS011;47574;52.090;5.244;2023-08-06T10:11:23;9.21;;;6.6;;
61675;SDS011;47574;52.090;5.244;2023-08-06T10:14:41;4.61;;;4.2;;
61675;SDS011;47574;52.090;5.244;2023-08-06T10:16:18;5.8;;;4.61;;
61675;SDS011;47574;52.090;5.244;2023-08-06T10:17:56;10.8;;;7.7;;
61675;SDS011;47574;52.090;5.244;2023-08-06T10:21:13;7.7;;;5.2;;
61675;SDS011;47574;52.090;5.244;2023-08-06T10:23:05;5.8;;;4.3;;
61675;SDS011;47574;52.090;5.244;2023-08-06T10:24:46;5.9;;;4.7;;
61675;SDS011;47574;52.090;5.244;2023-08-06T10:26:27;9.1;;;6.3;;
61675;SDS011;47574;52.090;5.244;2023-08-06T10:28:06;5.2;;;4.2;;
61675;SDS011;47574;52.090;5.244;2023-08-06T10:31:45;6.5;;;4.8;;
61675;SDS011;47574;52.090;5.244;2023-08-06T10:33:39;7.0;;;4.2;;
61675;SDS011;47574;52.090;5.244;2023-08-06T10:35:50;5.2;;;4.2;;
61675;SDS011;47574;52.090;5.244;2023-08-06T10:37:34;5.6;;;4.1;;
61675;SDS011;47574;52.090;5.244;2023-08-06T10:39:13;5.6;;;4.3;;
61675;SDS011;47574;52.090;5.244;2023-08-06T10:40:50;6.4;;;3.9;;
61675;SDS011;47574;52.090;5.244;2023-08-06T10:44:16;10.21;;;7.8;;
61675;SDS011;47574;52.090;5.244;2023-08-06T10:45:52;6.6;;;3.4;;
61675;SDS011;47574;52.090;5.244;2023-08-06T10:47:29;3.9;;;3.0;;
61675;SDS011;47574;52.090;5.244;2023-08-06T10:49:05;5.5;;;3.0;;
61675;SDS011;47574;52.090;5.244;2023-08-06T10:52:18;5.5;;;3.7;;
61675;SDS011;47574;52.090;5.244;2023-08-06T10:53:54;4.8;;;3.3;;
61675;SDS011;47574;52.090;5.244;2023-08-06T10:55:31;5.0;;;3.4;;
61675;SDS011;47574;52.090;5.244;2023-08-06T10:58:46;5.3;;;3.1;;
61675;SDS011;47574;52.090;5.244;2023-08-06T11:00:24;7.4;;;4.2;;
61675;SDS011;47574;52.090;5.244;2023-08-06T11:02:01;4.61;;;2.7;;
61675;SDS011;47574;52.090;5.244;2023-08-06T11:03:39;3.9;;;3.2;;
61675;SDS011;47574;52.090;5.244;2023-08-06T11:06:53;3.2;;;2.9;;
61675;SDS011;47574;52.090;5.244;2023-08-06T11:08:32;3.6;;;2.6;;
61675;SDS011;47574;52.090;5.244;2023-08-06T11:10:11;3.4;;;2.6;;
61675;SDS011;47574;52.090;5.244;2023-08-06T11:13:25;4.2;;;2.0;;
61675;SDS011;47574;52.090;5.244;2023-08-06T11:15:03;3.1;;;2.4;;
61675;SDS011;47574;52.090;5.244;2023-08-06T11:16:41;4.7;;;2.31;;
61675;SDS011;47574;52.090;5.244;2023-08-06T11:18:18;3.5;;;2.31;;
61675;SDS011;47574;52.090;5.244;2023-08-06T11:21:31;5.11;;;3.1;;
61675;SDS011;47574;52.090;5.244;2023-08-06T11:23:09;3.8;;;2.21;;
61675;SDS011;47574;52.090;5.244;2023-08-06T11:24:45;6.8;;;2.4;;
61675;SDS011;47574;52.090;5.244;2023-08-06T11:28:00;2.6;;;1.9;;
61675;SDS011;47574;52.090;5.244;2023-08-06T11:29:37;3.2;;;2.1;;
61675;SDS011;47574;52.090;5.244;2023-08-06T11:31:18;4.1;;;2.21;;
61675;SDS011;47574;52.090;5.244;2023-08-06T11:34:32;2.4;;;1.6;;
61675;SDS011;47574;52.090;5.244;2023-08-06T11:36:10;3.3;;;1.9;;
61675;SDS011;47574;52.090;5.244;2023-08-06T11:37:46;3.2;;;1.9;;
61675;SDS011;47574;52.090;5.244;2023-08-06T11:39:22;2.6;;;1.7;;
61675;SDS011;47574;52.090;5.244;2023-08-06T11:42:35;3.4;;;1.8;;
61675;SDS011;47574;52.090;5.244;2023-08-06T11:44:12;2.5;;;1.7;;
61675;SDS011;47574;52.090;5.244;2023-08-06T11:45:49;1.9;;;1.5;;
61675;SDS011;47574;52.090;5.244;2023-08-06T11:49:02;2.4;;;1.4;;
61675;SDS011;47574;52.090;5.244;2023-08-06T11:50:39;1.6;;;1.3;;
61675;SDS011;47574;52.090;5.244;2023-08-06T11:52:17;3.1;;;1.6;;
61675;SDS011;47574;52.090;5.244;2023-08-06T11:53:55;3.6;;;2.1;;
61675;SDS011;47574;52.090;5.244;2023-08-06T11:57:09;3.8;;;1.6;;
61675;SDS011;47574;52.090;5.244;2023-08-06T11:58:47;4.3;;;1.5;;
61675;SDS011;47574;52.090;5.244;2023-08-06T12:00:24;3.7;;;2.0;;
61675;SDS011;47574;52.090;5.244;2023-08-06T12:03:40;3.8;;;1.8;;
61675;SDS011;47574;52.090;5.244;2023-08-06T12:05:18;2.9;;;1.7;;
61675;SDS011;47574;52.090;5.244;2023-08-06T12:06:54;2.7;;;1.2;;
61675;SDS011;47574;52.090;5.244;2023-08-06T12:08:31;2.9;;;1.7;;
61675;SDS011;47574;52.090;5.244;2023-08-06T12:11:45;2.8;;;1.8;;
61675;SDS011;47574;52.090;5.244;2023-08-06T12:13:21;2.1;;;1.3;;
61675;SDS011;47574;52.090;5.244;2023-08-06T12:14:57;1.8;;;1.5;;
61675;SDS011;47574;52.090;5.244;2023-08-06T12:18:11;4.61;;;1.6;;
61675;SDS011;47574;52.090;5.244;2023-08-06T12:19:48;2.5;;;1.2;;
61675;SDS011;47574;52.090;5.244;2023-08-06T12:21:24;3.0;;;1.5;;
61675;SDS011;47574;52.090;5.244;2023-08-06T12:24:37;1.3;;;1.2;;
61675;SDS011;47574;52.090;5.244;2023-08-06T12:26:13;2.31;;;1.3;;
61675;SDS011;47574;52.090;5.244;2023-08-06T12:27:49;2.1;;;1.11;;
61675;SDS011;47574;52.090;5.244;2023-08-06T12:29:26;2.31;;;1.3;;
61675;SDS011;47574;52.090;5.244;2023-08-06T12:32:39;2.4;;;1.3;;
61675;SDS011;47574;52.090;5.244;2023-08-06T12:34:15;2.5;;;1.3;;
61675;SDS011;47574;52.090;5.244;2023-08-06T12:35:51;3.3;;;1.8;;
61675;SDS011;47574;52.090;5.244;2023-08-06T12:39:05;2.9;;;1.7;;
61675;SDS011;47574;52.090;5.244;2023-08-06T12:40:41;1.5;;;1.11;;
61675;SDS011;47574;52.090;5.244;2023-08-06T12:42:17;2.5;;;1.4;;
61675;SDS011;47574;52.090;5.244;2023-08-06T12:45:29;2.1;;;1.3;;
61675;SDS011;47574;52.090;5.244;2023-08-06T12:47:06;3.3;;;1.5;;
61675;SDS011;47574;52.090;5.244;2023-08-06T12:48:43;3.7;;;1.7;;
61675;SDS011;47574;52.090;5.244;2023-08-06T12:51:55;2.0;;;1.3;;
61675;SDS011;47574;52.090;5.244;2023-08-06T12:53:31;3.0;;;1.5;;
61675;SDS011;47574;52.090;5.244;2023-08-06T12:55:08;3.7;;;1.6;;
61675;SDS011;47574;52.090;5.244;2023-08-06T12:56:44;3.4;;;1.9;;
61675;SDS011;47574;52.090;5.244;2023-08-06T12:59:57;2.7;;;2.0;;
61675;SDS011;47574;52.090;5.244;2023-08-06T13:01:33;3.7;;;1.8;;